sensor_id;sensor_type;location;lat;lon;timestamp;temperature;humidity
1179;DHT22;578;48.408;10.004;2022-12-18T00:01:26;-5.70;99.90
1179;DHT22;578;48.408;10.004;2022-12-18T00:03:54;-5.70;99.90
1179;DHT22;578;48.408;10.004;2022-12-18T00:06:22;-5.70;99.90
1179;DHT22;578;48.408;10.004;2022-12-18T00:08:49;-5.60;99.90
1179;DHT22;578;48.408;10.004;2022-12-18T00:11:18;-5.70;99.90
1179;DHT22;578;48.408;10.004;2022-12-18T00:13:47;-5.60;99.90
1179;DHT22;578;48.408;10.004;2022-12-18T00:16:16;-5.60;99.90
1179;DHT22;578;48.408;10.004;2022-12-18T00:18:44;-5.70;99.90
1179;DHT22;578;48.408;10.004;2022-12-18T00:21:12;-5.70;99.90
1179;DHT22;578;48.408;10.004;2022-12-18T00:23:40;-5.70;99.90
1179;DHT22;578;48.408;10.004;2022-12-18T00:26:10;-5.70;99.90
1179;DHT22;578;48.408;10.004;2022-12-18T00:28:37;-5.80;99.90
1179;DHT22;578;48.408;10.004;2022-12-18T00:31:07;-5.70;99.90
1179;DHT22;578;48.408;10.004;2022-12-18T00:33:35;-5.80;99.90
1179;DHT22;578;48.408;10.004;2022-12-18T00:36:03;-5.80;99.90
1179;DHT22;578;48.408;10.004;2022-12-18T00:38:30;-5.70;99.90
1179;DHT22;578;48.408;10.004;2022-12-18T00:40:56;-5.70;99.90
1179;DHT22;578;48.408;10.004;2022-12-18T00:43:23;-5.70;99.90
1179;DHT22;578;48.408;10.004;2022-12-18T00:45:49;-5.80;99.90
1179;DHT22;578;48.408;10.004;2022-12-18T00:48:17;-5.80;99.90
1179;DHT22;578;48.408;10.004;2022-12-18T00:50:44;-5.80;99.90
1179;DHT22;578;48.408;10.004;2022-12-18T00:53:11;-5.70;99.90
1179;DHT22;578;48.408;10.004;2022-12-18T00:55:39;-5.70;99.90
1179;DHT22;578;48.408;10.004;2022-12-18T00:58:06;-5.70;99.90
1179;DHT22;578;48.408;10.004;2022-12-18T01:00:33;-5.70;99.90
1179;DHT22;578;48.408;10.004;2022-12-18T01:03:00;-5.70;99.90
1179;DHT22;578;48.408;10.004;2022-12-18T01:05:28;-5.70;99.90
1179;DHT22;578;48.408;10.004;2022-12-18T01:07:56;-5.70;99.90
1179;DHT22;578;48.408;10.004;2022-12-18T01:10:23;-5.70;99.90
1179;DHT22;578;48.408;10.004;2022-12-18T01:12:50;-5.70;99.90
1179;DHT22;578;48.408;10.004;2022-12-18T01:15:18;-5.70;99.90
1179;DHT22;578;48.408;10.004;2022-12-18T01:17:45;-5.70;99.90
1179;DHT22;578;48.408;10.004;2022-12-18T01:20:12;-5.60;99.90
1179;DHT22;578;48.408;10.004;2022-12-18T01:22:40;-5.70;99.90
1179;DHT22;578;48.408;10.004;2022-12-18T01:25:08;-5.70;99.90
1179;DHT22;578;48.408;10.004;2022-12-18T01:27:35;-5.70;99.90
1179;DHT22;578;48.408;10.004;2022-12-18T01:30:02;-5.80;99.90
1179;DHT22;578;48.408;10.004;2022-12-18T01:32:29;-5.80;99.90
1179;DHT22;578;48.408;10.004;2022-12-18T01:34:57;-5.70;99.90
1179;DHT22;578;48.408;10.004;2022-12-18T01:37:23;-5.80;99.90
1179;DHT22;578;48.408;10.004;2022-12-18T01:39:52;-5.80;99.90
1179;DHT22;578;48.408;10.004;2022-12-18T01:42:20;-5.80;99.90
1179;DHT22;578;48.408;10.004;2022-12-18T01:44:59;-5.80;99.90
1179;DHT22;578;48.408;10.004;2022-12-18T01:47:30;-5.70;99.90
1179;DHT22;578;48.408;10.004;2022-12-18T01:49:59;-5.80;99.90
1179;DHT22;578;48.408;10.004;2022-12-18T01:52:29;-5.80;99.90
1179;DHT22;578;48.408;10.004;2022-12-18T01:54:59;-5.80;99.90
1179;DHT22;578;48.408;10.004;2022-12-18T01:57:27;-5.80;99.90
1179;DHT22;578;48.408;10.004;2022-12-18T01:59:59;-5.70;99.90
1179;DHT22;578;48.408;10.004;2022-12-18T02:02:26;-5.80;99.90
1179;DHT22;578;48.408;10.004;2022-12-18T02:04:54;-5.80;99.90
1179;DHT22;578;48.408;10.004;2022-12-18T02:07:24;-5.70;99.90
1179;DHT22;578;48.408;10.004;2022-12-18T02:10:01;-5.80;99.90
1179;DHT22;578;48.408;10.004;2022-12-18T02:12:35;-5.80;99.90
1179;DHT22;578;48.408;10.004;2022-12-18T02:15:10;-5.80;99.90
1179;DHT22;578;48.408;10.004;2022-12-18T02:17:41;-5.80;99.90
1179;DHT22;578;48.408;10.004;2022-12-18T02:20:15;-5.80;99.90
1179;DHT22;578;48.408;10.004;2022-12-18T02:22:58;-5.70;99.90
1179;DHT22;578;48.408;10.004;2022-12-18T02:28:25;-5.70;99.90
1179;DHT22;578;48.408;10.004;2022-12-18T02:30:56;-5.80;99.90
1179;DHT22;578;48.408;10.004;2022-12-18T02:33:26;-5.90;99.90
1179;DHT22;578;48.408;10.004;2022-12-18T02:35:54;-5.90;99.90
1179;DHT22;578;48.408;10.004;2022-12-18T02:38:23;-5.80;99.90
1179;DHT22;578;48.408;10.004;2022-12-18T02:40:53;-5.80;99.90
1179;DHT22;578;48.408;10.004;2022-12-18T02:43:22;-5.90;99.90
1179;DHT22;578;48.408;10.004;2022-12-18T02:45:53;-5.90;99.90
1179;DHT22;578;48.408;10.004;2022-12-18T02:48:23;-5.80;99.90
1179;DHT22;578;48.408;10.004;2022-12-18T02:50:56;-5.80;99.90
1179;DHT22;578;48.408;10.004;2022-12-18T02:53:30;-5.80;99.90
1179;DHT22;578;48.408;10.004;2022-12-18T02:56:06;-5.70;99.90
1179;DHT22;578;48.408;10.004;2022-12-18T02:58:41;-5.70;99.90
1179;DHT22;578;48.408;10.004;2022-12-18T03:01:15;-5.70;99.90
1179;DHT22;578;48.408;10.004;2022-12-18T03:03:47;-5.70;99.90
1179;DHT22;578;48.408;10.004;2022-12-18T03:06:23;-5.60;99.90
1179;DHT22;578;48.408;10.004;2022-12-18T03:08:54;-5.60;99.90
1179;DHT22;578;48.408;10.004;2022-12-18T03:11:23;-5.70;99.90
1179;DHT22;578;48.408;10.004;2022-12-18T03:14:07;-5.70;99.90
1179;DHT22;578;48.408;10.004;2022-12-18T03:16:35;-5.70;99.90
1179;DHT22;578;48.408;10.004;2022-12-18T03:19:06;-5.70;99.90
1179;DHT22;578;48.408;10.004;2022-12-18T03:21:36;-5.70;99.90
1179;DHT22;578;48.408;10.004;2022-12-18T03:24:06;-5.70;99.90
1179;DHT22;578;48.408;10.004;2022-12-18T03:26:35;-5.70;99.90
1179;DHT22;578;48.408;10.004;2022-12-18T03:29:06;-5.70;99.90
1179;DHT22;578;48.408;10.004;2022-12-18T03:31:34;-5.80;99.90
1179;DHT22;578;48.408;10.004;2022-12-18T03:34:08;-5.80;99.90
1179;DHT22;578;48.408;10.004;2022-12-18T03:36:35;-5.80;99.90
1179;DHT22;578;48.408;10.004;2022-12-18T03:39:03;-5.90;99.90
1179;DHT22;578;48.408;10.004;2022-12-18T03:41:32;-5.90;99.90
1179;DHT22;578;48.408;10.004;2022-12-18T03:44:05;-6.00;99.90
1179;DHT22;578;48.408;10.004;2022-12-18T03:46:43;-6.00;99.90
1179;DHT22;578;48.408;10.004;2022-12-18T03:49:14;-6.00;99.90
1179;DHT22;578;48.408;10.004;2022-12-18T03:51:49;-6.00;99.90
1179;DHT22;578;48.408;10.004;2022-12-18T03:54:18;-6.10;99.90
1179;DHT22;578;48.408;10.004;2022-12-18T03:56:49;-6.00;99.90
1179;DHT22;578;48.408;10.004;2022-12-18T03:59:19;-6.00;99.90
1179;DHT22;578;48.408;10.004;2022-12-18T04:01:49;-6.00;99.90
1179;DHT22;578;48.408;10.004;2022-12-18T04:04:19;-6.10;99.90
1179;DHT22;578;48.408;10.004;2022-12-18T04:06:47;-6.20;99.90
1179;DHT22;578;48.408;10.004;2022-12-18T04:09:15;-6.20;99.90
1179;DHT22;578;48.408;10.004;2022-12-18T04:11:42;-6.20;99.90
1179;DHT22;578;48.408;10.004;2022-12-18T04:14:10;-6.20;99.90
1179;DHT22;578;48.408;10.004;2022-12-18T04:16:37;-6.40;99.90
1179;DHT22;578;48.408;10.004;2022-12-18T04:19:05;-6.30;99.90
1179;DHT22;578;48.408;10.004;2022-12-18T04:21:32;-6.30;99.90
1179;DHT22;578;48.408;10.004;2022-12-18T04:23:59;-6.40;99.90
1179;DHT22;578;48.408;10.004;2022-12-18T04:26:26;-6.40;99.90
1179;DHT22;578;48.408;10.004;2022-12-18T04:28:52;-6.30;99.90
1179;DHT22;578;48.408;10.004;2022-12-18T04:31:19;-6.40;99.90
1179;DHT22;578;48.408;10.004;2022-12-18T04:33:46;-6.40;99.90
1179;DHT22;578;48.408;10.004;2022-12-18T04:36:14;-6.60;99.90
1179;DHT22;578;48.408;10.004;2022-12-18T04:38:41;-6.50;99.90
1179;DHT22;578;48.408;10.004;2022-12-18T04:41:08;-6.50;99.90
1179;DHT22;578;48.408;10.004;2022-12-18T04:43:34;-6.50;99.90
1179;DHT22;578;48.408;10.004;2022-12-18T04:46:02;-6.60;99.90
1179;DHT22;578;48.408;10.004;2022-12-18T04:48:29;-6.70;99.90
1179;DHT22;578;48.408;10.004;2022-12-18T04:50:56;-6.60;99.90
1179;DHT22;578;48.408;10.004;2022-12-18T04:53:24;-6.60;99.90
1179;DHT22;578;48.408;10.004;2022-12-18T04:55:51;-6.60;99.90
1179;DHT22;578;48.408;10.004;2022-12-18T04:58:28;-6.60;99.90
1179;DHT22;578;48.408;10.004;2022-12-18T05:00:54;-6.50;99.90
1179;DHT22;578;48.408;10.004;2022-12-18T05:03:21;-6.60;99.90
1179;DHT22;578;48.408;10.004;2022-12-18T05:05:49;-6.50;99.90
1179;DHT22;578;48.408;10.004;2022-12-18T05:08:16;-6.50;99.90
1179;DHT22;578;48.408;10.004;2022-12-18T05:10:44;-6.50;99.90
1179;DHT22;578;48.408;10.004;2022-12-18T05:13:11;-6.50;99.90
1179;DHT22;578;48.408;10.004;2022-12-18T05:15:38;-6.50;99.90
1179;DHT22;578;48.408;10.004;2022-12-18T05:18:05;-6.50;99.90
1179;DHT22;578;48.408;10.004;2022-12-18T05:20:32;-6.50;99.90
1179;DHT22;578;48.408;10.004;2022-12-18T05:22:59;-6.50;99.90
1179;DHT22;578;48.408;10.004;2022-12-18T05:25:25;-6.40;99.90
1179;DHT22;578;48.408;10.004;2022-12-18T05:27:54;-6.40;99.90
1179;DHT22;578;48.408;10.004;2022-12-18T05:30:20;-6.40;99.90
1179;DHT22;578;48.408;10.004;2022-12-18T05:32:47;-6.40;99.90
1179;DHT22;578;48.408;10.004;2022-12-18T05:35:14;-6.40;99.90
1179;DHT22;578;48.408;10.004;2022-12-18T05:37:41;-6.50;99.90
1179;DHT22;578;48.408;10.004;2022-12-18T05:40:09;-6.50;99.90
1179;DHT22;578;48.408;10.004;2022-12-18T05:42:36;-6.30;99.90
1179;DHT22;578;48.408;10.004;2022-12-18T05:45:05;-6.40;99.90
1179;DHT22;578;48.408;10.004;2022-12-18T05:47:32;-6.40;99.90
1179;DHT22;578;48.408;10.004;2022-12-18T05:49:59;-6.40;99.90
1179;DHT22;578;48.408;10.004;2022-12-18T05:52:26;-6.30;99.90
1179;DHT22;578;48.408;10.004;2022-12-18T05:54:52;-6.40;99.90
1179;DHT22;578;48.408;10.004;2022-12-18T05:57:19;-6.40;99.90
1179;DHT22;578;48.408;10.004;2022-12-18T05:59:46;-6.30;99.90
1179;DHT22;578;48.408;10.004;2022-12-18T06:02:14;-6.40;99.90
1179;DHT22;578;48.408;10.004;2022-12-18T06:04:41;-6.30;99.90
1179;DHT22;578;48.408;10.004;2022-12-18T06:07:07;-6.30;99.90
1179;DHT22;578;48.408;10.004;2022-12-18T06:09:34;-6.30;99.90
1179;DHT22;578;48.408;10.004;2022-12-18T06:12:01;-6.40;99.90
1179;DHT22;578;48.408;10.004;2022-12-18T06:14:28;-6.30;99.90
1179;DHT22;578;48.408;10.004;2022-12-18T06:16:55;-6.40;99.90
1179;DHT22;578;48.408;10.004;2022-12-18T06:19:23;-6.40;99.90
1179;DHT22;578;48.408;10.004;2022-12-18T06:21:49;-6.30;99.90
1179;DHT22;578;48.408;10.004;2022-12-18T06:24:16;-6.20;99.90
1179;DHT22;578;48.408;10.004;2022-12-18T06:26:43;-6.30;99.90
1179;DHT22;578;48.408;10.004;2022-12-18T06:29:10;-6.30;99.90
1179;DHT22;578;48.408;10.004;2022-12-18T06:31:36;-6.20;99.90
1179;DHT22;578;48.408;10.004;2022-12-18T06:34:04;-6.20;99.90
1179;DHT22;578;48.408;10.004;2022-12-18T06:36:32;-6.20;99.90
1179;DHT22;578;48.408;10.004;2022-12-18T06:38:59;-6.30;99.90
1179;DHT22;578;48.408;10.004;2022-12-18T06:41:26;-6.20;99.90
1179;DHT22;578;48.408;10.004;2022-12-18T06:43:53;-6.20;99.90
1179;DHT22;578;48.408;10.004;2022-12-18T06:46:19;-6.20;99.90
1179;DHT22;578;48.408;10.004;2022-12-18T06:48:47;-6.20;99.90
1179;DHT22;578;48.408;10.004;2022-12-18T06:51:17;-6.10;99.90
1179;DHT22;578;48.408;10.004;2022-12-18T06:53:45;-6.20;99.90
1179;DHT22;578;48.408;10.004;2022-12-18T06:56:12;-6.20;99.90
1179;DHT22;578;48.408;10.004;2022-12-18T06:58:38;-6.10;99.90
1179;DHT22;578;48.408;10.004;2022-12-18T07:01:07;-6.10;99.90
1179;DHT22;578;48.408;10.004;2022-12-18T07:03:34;-6.10;99.90
1179;DHT22;578;48.408;10.004;2022-12-18T07:06:02;-6.10;99.90
1179;DHT22;578;48.408;10.004;2022-12-18T07:08:29;-6.00;99.90
1179;DHT22;578;48.408;10.004;2022-12-18T07:10:57;-6.00;99.90
1179;DHT22;578;48.408;10.004;2022-12-18T07:13:23;-5.90;99.90
1179;DHT22;578;48.408;10.004;2022-12-18T07:15:50;-6.00;99.90
1179;DHT22;578;48.408;10.004;2022-12-18T07:18:17;-5.90;99.90
1179;DHT22;578;48.408;10.004;2022-12-18T07:20:44;-5.90;99.90
1179;DHT22;578;48.408;10.004;2022-12-18T07:23:11;-5.80;99.90
1179;DHT22;578;48.408;10.004;2022-12-18T07:25:38;-5.80;99.90
1179;DHT22;578;48.408;10.004;2022-12-18T07:28:06;-5.80;99.90
1179;DHT22;578;48.408;10.004;2022-12-18T07:30:33;-5.70;99.90
1179;DHT22;578;48.408;10.004;2022-12-18T07:33:00;-5.70;99.90
1179;DHT22;578;48.408;10.004;2022-12-18T07:35:26;-5.70;99.90
1179;DHT22;578;48.408;10.004;2022-12-18T07:37:53;-5.70;99.90
1179;DHT22;578;48.408;10.004;2022-12-18T07:40:20;-5.70;99.90
1179;DHT22;578;48.408;10.004;2022-12-18T07:42:47;-5.70;99.90
1179;DHT22;578;48.408;10.004;2022-12-18T07:45:15;-5.60;99.90
1179;DHT22;578;48.408;10.004;2022-12-18T07:47:41;-5.60;99.90
1179;DHT22;578;48.408;10.004;2022-12-18T07:50:09;-5.60;99.90
1179;DHT22;578;48.408;10.004;2022-12-18T07:52:35;-5.50;99.90
1179;DHT22;578;48.408;10.004;2022-12-18T07:55:03;-5.50;99.90
1179;DHT22;578;48.408;10.004;2022-12-18T07:57:29;-5.50;99.90
1179;DHT22;578;48.408;10.004;2022-12-18T07:59:56;-5.40;99.90
1179;DHT22;578;48.408;10.004;2022-12-18T08:02:24;-5.30;99.90
1179;DHT22;578;48.408;10.004;2022-12-18T08:04:51;-5.30;99.90
1179;DHT22;578;48.408;10.004;2022-12-18T08:07:18;-5.30;99.90
1179;DHT22;578;48.408;10.004;2022-12-18T08:09:44;-5.30;99.90
1179;DHT22;578;48.408;10.004;2022-12-18T08:12:11;-5.20;99.90
1179;DHT22;578;48.408;10.004;2022-12-18T08:14:38;-5.20;99.90
1179;DHT22;578;48.408;10.004;2022-12-18T08:17:05;-5.20;99.90
1179;DHT22;578;48.408;10.004;2022-12-18T08:19:33;-5.10;99.90
1179;DHT22;578;48.408;10.004;2022-12-18T08:21:59;-5.10;99.90
1179;DHT22;578;48.408;10.004;2022-12-18T08:24:26;-5.10;99.90
1179;DHT22;578;48.408;10.004;2022-12-18T08:26:53;-5.20;99.90
1179;DHT22;578;48.408;10.004;2022-12-18T08:29:20;-5.10;99.90
1179;DHT22;578;48.408;10.004;2022-12-18T08:31:47;-5.00;99.90
1179;DHT22;578;48.408;10.004;2022-12-18T08:34:13;-5.10;99.90
1179;DHT22;578;48.408;10.004;2022-12-18T08:36:41;-5.10;99.90
1179;DHT22;578;48.408;10.004;2022-12-18T08:39:08;-4.90;99.90
1179;DHT22;578;48.408;10.004;2022-12-18T08:41:35;-4.90;99.90
1179;DHT22;578;48.408;10.004;2022-12-18T08:44:02;-4.90;99.90
1179;DHT22;578;48.408;10.004;2022-12-18T08:46:46;-4.90;99.90
1179;DHT22;578;48.408;10.004;2022-12-18T08:49:13;-4.80;99.90
1179;DHT22;578;48.408;10.004;2022-12-18T08:51:41;-4.80;99.90
1179;DHT22;578;48.408;10.004;2022-12-18T08:54:11;-4.80;99.90
1179;DHT22;578;48.408;10.004;2022-12-18T08:56:38;-4.90;99.90
1179;DHT22;578;48.408;10.004;2022-12-18T08:59:05;-4.80;99.90
1179;DHT22;578;48.408;10.004;2022-12-18T09:01:32;-4.80;99.90
1179;DHT22;578;48.408;10.004;2022-12-18T09:03:58;-4.70;99.90
1179;DHT22;578;48.408;10.004;2022-12-18T09:06:25;-4.70;99.90
1179;DHT22;578;48.408;10.004;2022-12-18T09:08:54;-4.50;99.90
1179;DHT22;578;48.408;10.004;2022-12-18T09:11:22;-4.60;99.90
1179;DHT22;578;48.408;10.004;2022-12-18T09:13:50;-4.50;99.90
1179;DHT22;578;48.408;10.004;2022-12-18T09:16:17;-4.60;99.90
1179;DHT22;578;48.408;10.004;2022-12-18T09:18:45;-4.50;99.90
1179;DHT22;578;48.408;10.004;2022-12-18T09:21:13;-4.40;99.90
1179;DHT22;578;48.408;10.004;2022-12-18T09:23:40;-4.30;99.90
1179;DHT22;578;48.408;10.004;2022-12-18T09:26:09;-4.40;99.90
1179;DHT22;578;48.408;10.004;2022-12-18T09:28:36;-4.30;99.90
1179;DHT22;578;48.408;10.004;2022-12-18T09:31:07;-4.30;99.90
1179;DHT22;578;48.408;10.004;2022-12-18T09:33:34;-4.20;99.90
1179;DHT22;578;48.408;10.004;2022-12-18T09:36:02;-4.30;99.90
1179;DHT22;578;48.408;10.004;2022-12-18T09:38:29;-4.40;99.90
1179;DHT22;578;48.408;10.004;2022-12-18T09:40:59;-4.40;99.90
1179;DHT22;578;48.408;10.004;2022-12-18T09:43:33;-4.40;99.90
1179;DHT22;578;48.408;10.004;2022-12-18T09:46:05;-4.30;99.90
1179;DHT22;578;48.408;10.004;2022-12-18T09:48:35;-4.20;99.90
1179;DHT22;578;48.408;10.004;2022-12-18T09:51:10;-4.10;99.90
1179;DHT22;578;48.408;10.004;2022-12-18T09:53:41;-3.90;99.90
1179;DHT22;578;48.408;10.004;2022-12-18T09:56:13;-4.10;99.90
1179;DHT22;578;48.408;10.004;2022-12-18T09:58:46;-4.10;99.90
1179;DHT22;578;48.408;10.004;2022-12-18T10:01:20;-3.90;99.90
1179;DHT22;578;48.408;10.004;2022-12-18T10:03:48;-4.00;99.90
1179;DHT22;578;48.408;10.004;2022-12-18T10:06:20;-3.90;99.90
1179;DHT22;578;48.408;10.004;2022-12-18T10:08:51;-4.10;99.90
1179;DHT22;578;48.408;10.004;2022-12-18T10:11:32;-4.20;99.90
1179;DHT22;578;48.408;10.004;2022-12-18T10:14:09;-4.10;99.90
1179;DHT22;578;48.408;10.004;2022-12-18T10:16:41;-3.80;99.90
1179;DHT22;578;48.408;10.004;2022-12-18T10:19:21;-3.70;99.90
1179;DHT22;578;48.408;10.004;2022-12-18T10:21:54;-3.70;99.90
1179;DHT22;578;48.408;10.004;2022-12-18T10:24:27;-3.90;99.90
1179;DHT22;578;48.408;10.004;2022-12-18T10:27:08;-4.00;99.90
1179;DHT22;578;48.408;10.004;2022-12-18T10:29:38;-4.00;99.90
1179;DHT22;578;48.408;10.004;2022-12-18T10:32:06;-4.10;99.90
1179;DHT22;578;48.408;10.004;2022-12-18T10:34:33;-4.00;99.90
1179;DHT22;578;48.408;10.004;2022-12-18T10:37:01;-3.90;99.90
1179;DHT22;578;48.408;10.004;2022-12-18T10:39:30;-3.80;99.90
1179;DHT22;578;48.408;10.004;2022-12-18T10:42:10;-4.00;99.90
1179;DHT22;578;48.408;10.004;2022-12-18T10:44:40;-3.80;99.90
1179;DHT22;578;48.408;10.004;2022-12-18T10:47:12;-3.70;99.90
1179;DHT22;578;48.408;10.004;2022-12-18T10:49:46;-3.60;99.90
1179;DHT22;578;48.408;10.004;2022-12-18T10:52:17;-3.60;99.90
1179;DHT22;578;48.408;10.004;2022-12-18T10:54:49;-3.90;99.90
1179;DHT22;578;48.408;10.004;2022-12-18T10:57:28;-3.70;99.90
1179;DHT22;578;48.408;10.004;2022-12-18T10:59:58;-3.70;99.90
1179;DHT22;578;48.408;10.004;2022-12-18T11:02:28;-3.90;99.90
1179;DHT22;578;48.408;10.004;2022-12-18T11:04:59;-3.90;99.90
1179;DHT22;578;48.408;10.004;2022-12-18T11:07:47;-3.80;99.90
1179;DHT22;578;48.408;10.004;2022-12-18T11:10:16;-3.70;99.90
1179;DHT22;578;48.408;10.004;2022-12-18T11:12:44;-3.40;99.90
1179;DHT22;578;48.408;10.004;2022-12-18T11:15:16;-3.50;99.90
1179;DHT22;578;48.408;10.004;2022-12-18T11:17:48;-3.50;99.90
1179;DHT22;578;48.408;10.004;2022-12-18T11:20:29;-3.30;99.90
1179;DHT22;578;48.408;10.004;2022-12-18T11:22:59;-3.50;99.90
1179;DHT22;578;48.408;10.004;2022-12-18T11:25:27;-3.60;99.90
1179;DHT22;578;48.408;10.004;2022-12-18T11:27:56;-3.60;99.90
1179;DHT22;578;48.408;10.004;2022-12-18T11:30:28;-3.50;99.90
1179;DHT22;578;48.408;10.004;2022-12-18T11:32:59;-3.50;99.90
1179;DHT22;578;48.408;10.004;2022-12-18T11:35:38;-3.50;99.90
1179;DHT22;578;48.408;10.004;2022-12-18T11:38:12;-3.50;99.90
1179;DHT22;578;48.408;10.004;2022-12-18T11:40:43;-3.20;99.90
1179;DHT22;578;48.408;10.004;2022-12-18T11:43:13;-3.30;99.90
1179;DHT22;578;48.408;10.004;2022-12-18T11:45:48;-3.30;99.90
1179;DHT22;578;48.408;10.004;2022-12-18T11:48:19;-3.40;99.90
1179;DHT22;578;48.408;10.004;2022-12-18T11:50:50;-3.30;99.90
1179;DHT22;578;48.408;10.004;2022-12-18T11:53:18;-3.30;99.90
1179;DHT22;578;48.408;10.004;2022-12-18T11:55:56;-3.40;99.90
1179;DHT22;578;48.408;10.004;2022-12-18T11:58:32;-3.10;99.90
1179;DHT22;578;48.408;10.004;2022-12-18T12:01:13;-3.20;99.90
1179;DHT22;578;48.408;10.004;2022-12-18T12:04:10;-3.10;99.90
1179;DHT22;578;48.408;10.004;2022-12-18T12:06:47;-2.80;99.90
1179;DHT22;578;48.408;10.004;2022-12-18T12:09:21;-3.40;99.90
1179;DHT22;578;48.408;10.004;2022-12-18T12:11:58;-3.40;99.90
1179;DHT22;578;48.408;10.004;2022-12-18T12:14:37;-3.10;99.90
1179;DHT22;578;48.408;10.004;2022-12-18T12:17:18;-3.20;99.90
1179;DHT22;578;48.408;10.004;2022-12-18T12:19:54;-3.20;99.90
1179;DHT22;578;48.408;10.004;2022-12-18T12:22:26;-3.40;99.90
1179;DHT22;578;48.408;10.004;2022-12-18T12:25:07;-3.50;99.90
1179;DHT22;578;48.408;10.004;2022-12-18T12:27:47;-3.30;99.90
1179;DHT22;578;48.408;10.004;2022-12-18T12:30:20;-3.10;99.90
1179;DHT22;578;48.408;10.004;2022-12-18T12:33:03;-3.30;99.90
1179;DHT22;578;48.408;10.004;2022-12-18T12:35:40;-3.40;99.90
1179;DHT22;578;48.408;10.004;2022-12-18T12:38:12;-3.50;99.90
1179;DHT22;578;48.408;10.004;2022-12-18T12:40:45;-3.60;99.90
1179;DHT22;578;48.408;10.004;2022-12-18T12:43:25;-3.60;99.90
1179;DHT22;578;48.408;10.004;2022-12-18T12:45:55;-3.80;99.90
1179;DHT22;578;48.408;10.004;2022-12-18T12:51:17;-3.70;99.90
1179;DHT22;578;48.408;10.004;2022-12-18T12:53:44;-3.60;99.90
1179;DHT22;578;48.408;10.004;2022-12-18T12:56:14;-3.60;99.90
1179;DHT22;578;48.408;10.004;2022-12-18T12:58:48;-3.80;99.90
1179;DHT22;578;48.408;10.004;2022-12-18T13:01:23;-3.90;99.90
1179;DHT22;578;48.408;10.004;2022-12-18T13:04:02;-3.90;99.90
1179;DHT22;578;48.408;10.004;2022-12-18T13:06:39;-3.60;99.90
1179;DHT22;578;48.408;10.004;2022-12-18T13:09:06;-3.70;99.90
1179;DHT22;578;48.408;10.004;2022-12-18T13:11:38;-3.90;99.90
1179;DHT22;578;48.408;10.004;2022-12-18T13:14:28;-3.90;99.90
1179;DHT22;578;48.408;10.004;2022-12-18T13:17:27;-3.80;99.90
1179;DHT22;578;48.408;10.004;2022-12-18T13:20:20;-3.70;99.90
1179;DHT22;578;48.408;10.004;2022-12-18T13:22:49;-3.50;99.90
1179;DHT22;578;48.408;10.004;2022-12-18T13:25:34;-3.60;99.90
1179;DHT22;578;48.408;10.004;2022-12-18T13:28:08;-3.70;99.90
1179;DHT22;578;48.408;10.004;2022-12-18T13:30:49;-3.80;99.90
1179;DHT22;578;48.408;10.004;2022-12-18T13:33:47;-3.70;99.90
1179;DHT22;578;48.408;10.004;2022-12-18T13:36:27;-3.70;99.90
1179;DHT22;578;48.408;10.004;2022-12-18T13:39:21;-3.60;99.90
1179;DHT22;578;48.408;10.004;2022-12-18T13:41:50;-3.60;99.90
1179;DHT22;578;48.408;10.004;2022-12-18T13:44:25;-3.60;99.90
1179;DHT22;578;48.408;10.004;2022-12-18T13:46:52;-3.80;99.90
1179;DHT22;578;48.408;10.004;2022-12-18T13:49:22;-3.80;99.90
1179;DHT22;578;48.408;10.004;2022-12-18T13:51:52;-3.80;99.90
1179;DHT22;578;48.408;10.004;2022-12-18T13:54:25;-3.90;99.90
1179;DHT22;578;48.408;10.004;2022-12-18T13:56:55;-3.90;99.90
1179;DHT22;578;48.408;10.004;2022-12-18T13:59:24;-4.20;99.90
1179;DHT22;578;48.408;10.004;2022-12-18T14:01:53;-4.10;99.90
1179;DHT22;578;48.408;10.004;2022-12-18T14:04:26;-4.00;99.90
1179;DHT22;578;48.408;10.004;2022-12-18T14:06:57;-3.90;99.90
1179;DHT22;578;48.408;10.004;2022-12-18T14:09:27;-4.00;99.90
1179;DHT22;578;48.408;10.004;2022-12-18T14:11:55;-3.90;99.90
1179;DHT22;578;48.408;10.004;2022-12-18T14:14:45;-3.80;99.90
1179;DHT22;578;48.408;10.004;2022-12-18T14:17:13;-3.90;99.90
1179;DHT22;578;48.408;10.004;2022-12-18T14:19:43;-4.00;99.90
1179;DHT22;578;48.408;10.004;2022-12-18T14:22:19;-4.10;99.90
1179;DHT22;578;48.408;10.004;2022-12-18T14:24:47;-4.20;99.90
1179;DHT22;578;48.408;10.004;2022-12-18T14:27:30;-4.00;99.90
1179;DHT22;578;48.408;10.004;2022-12-18T14:29:57;-4.10;99.90
1179;DHT22;578;48.408;10.004;2022-12-18T14:32:24;-4.20;99.90
1179;DHT22;578;48.408;10.004;2022-12-18T14:34:52;-4.10;99.90
1179;DHT22;578;48.408;10.004;2022-12-18T14:37:23;-4.20;99.90
1179;DHT22;578;48.408;10.004;2022-12-18T14:39:57;-4.10;99.90
1179;DHT22;578;48.408;10.004;2022-12-18T14:42:25;-4.00;99.90
1179;DHT22;578;48.408;10.004;2022-12-18T14:47:54;-4.10;99.90
1179;DHT22;578;48.408;10.004;2022-12-18T14:50:21;-4.00;99.90
1179;DHT22;578;48.408;10.004;2022-12-18T14:52:49;-4.00;99.90
1179;DHT22;578;48.408;10.004;2022-12-18T14:55:16;-4.10;99.90
1179;DHT22;578;48.408;10.004;2022-12-18T14:57:43;-4.10;99.90
1179;DHT22;578;48.408;10.004;2022-12-18T15:00:16;-4.20;99.90
1179;DHT22;578;48.408;10.004;2022-12-18T15:02:45;-4.40;99.90
1179;DHT22;578;48.408;10.004;2022-12-18T15:05:18;-4.30;99.90
1179;DHT22;578;48.408;10.004;2022-12-18T15:07:47;-4.20;99.90
1179;DHT22;578;48.408;10.004;2022-12-18T15:10:17;-4.20;99.90
1179;DHT22;578;48.408;10.004;2022-12-18T15:12:45;-4.30;99.90
1179;DHT22;578;48.408;10.004;2022-12-18T15:15:44;-4.10;99.90
1179;DHT22;578;48.408;10.004;2022-12-18T15:18:13;-4.20;99.90
1179;DHT22;578;48.408;10.004;2022-12-18T15:20:43;-4.20;99.90
1179;DHT22;578;48.408;10.004;2022-12-18T15:23:15;-4.20;99.90
1179;DHT22;578;48.408;10.004;2022-12-18T15:25:45;-4.30;99.90
1179;DHT22;578;48.408;10.004;2022-12-18T15:28:19;-4.30;99.90
1179;DHT22;578;48.408;10.004;2022-12-18T15:31:05;-4.30;99.90
1179;DHT22;578;48.408;10.004;2022-12-18T15:33:34;-4.20;99.90
1179;DHT22;578;48.408;10.004;2022-12-18T15:36:03;-4.30;99.90
1179;DHT22;578;48.408;10.004;2022-12-18T15:38:30;-4.40;99.90
1179;DHT22;578;48.408;10.004;2022-12-18T15:40:59;-4.40;99.90
1179;DHT22;578;48.408;10.004;2022-12-18T15:43:29;-4.70;99.90
1179;DHT22;578;48.408;10.004;2022-12-18T15:46:06;-4.50;99.90
1179;DHT22;578;48.408;10.004;2022-12-18T15:48:34;-4.40;99.90
1179;DHT22;578;48.408;10.004;2022-12-18T15:51:01;-4.50;99.90
1179;DHT22;578;48.408;10.004;2022-12-18T15:53:30;-4.60;99.90
1179;DHT22;578;48.408;10.004;2022-12-18T15:55:59;-4.60;99.90
1179;DHT22;578;48.408;10.004;2022-12-18T15:58:44;-4.50;99.90
1179;DHT22;578;48.408;10.004;2022-12-18T16:01:11;-4.60;99.90
1179;DHT22;578;48.408;10.004;2022-12-18T16:03:38;-4.60;99.90
1179;DHT22;578;48.408;10.004;2022-12-18T16:06:05;-4.60;99.90
1179;DHT22;578;48.408;10.004;2022-12-18T16:08:32;-4.60;99.90
1179;DHT22;578;48.408;10.004;2022-12-18T16:11:01;-4.40;99.90
1179;DHT22;578;48.408;10.004;2022-12-18T16:13:27;-4.50;99.90
1179;DHT22;578;48.408;10.004;2022-12-18T16:15:54;-4.50;99.90
1179;DHT22;578;48.408;10.004;2022-12-18T16:18:21;-4.40;99.90
1179;DHT22;578;48.408;10.004;2022-12-18T16:20:48;-4.50;99.90
1179;DHT22;578;48.408;10.004;2022-12-18T16:23:14;-4.30;99.90
1179;DHT22;578;48.408;10.004;2022-12-18T16:25:41;-4.40;99.90
1179;DHT22;578;48.408;10.004;2022-12-18T16:28:09;-4.70;99.90
1179;DHT22;578;48.408;10.004;2022-12-18T16:30:36;-4.80;99.90